EA5CEE Santa Pola ES current weather conditions

sailwx.info

Wind from 060 at 17 knots gusting 25

Air temperature 12.2° C
Dewpoint 8.9° C

Last reported at 2018-Feb-21 16:07 UTC.
Time now 2018-Feb-21 17:11 UTC

Location: N 38°13' W 000°31'.
View on Google Maps.

See reports from other nearby stations

  
Tides and Currents Weather Stations Pressure Air Temp Water Temp Dewpoint Dewpoint Depression Visibility Wind Speed Wind Dir Waves Ship Positions
date/time (UTC)wind fromknots sea level pressurealtimeterstation pressurevisibilityair tempwater tempwave heightnotes
2018-Feb-21 16:07 060 17 gusting 25 12.2
2018-Feb-21 15:52 072 14 gusting 20 12.8
2018-Feb-21 15:37 070 11 gusting 17 13.3
2018-Feb-21 15:22 077 10 gusting 16 12.8
2018-Feb-21 15:07 074 8 gusting 14 12.8
2018-Feb-21 14:37 072 7 gusting 13 13.9
2018-Feb-21 14:22 099 4 gusting 7 13.9
2018-Feb-21 14:07 068 5 gusting 6 13.9
2018-Feb-21 13:52 106 2 gusting 5 13.3
2018-Feb-21 13:36 098 4 gusting 7 13.9
2018-Feb-21 13:21 127 3 gusting 6 14.4
2018-Feb-21 13:06 086 2 gusting 5 14.4
2018-Feb-21 12:51 085 3 gusting 6 15.0
2018-Feb-21 12:36 082 0 gusting 6 15.0
2018-Feb-21 12:21 215 0 gusting 3 13.9
2018-Feb-21 12:06 204 2 gusting 4 13.3
2018-Feb-21 11:51 221 3 gusting 6 12.8
2018-Feb-21 11:36 249 3 gusting 6 12.2
2018-Feb-21 11:21 226 3 gusting 6 12.2
2018-Feb-21 11:06 241 3 gusting 6 12.2
2018-Feb-21 10:51 211 2 gusting 5 12.2
2018-Feb-21 10:36 106 2 gusting 5 12.2
2018-Feb-21 10:21 099 1 gusting 4 12.2
2018-Feb-21 10:06 271 12.2
2018-Feb-21 09:51 260 1 gusting 4 11.7
2018-Feb-21 09:36 281 0 gusting 2 11.1
2018-Feb-21 09:21 290 10.6
2018-Feb-21 09:06 278 2 gusting 4 10.6
2018-Feb-21 08:51 295 2 gusting 5 10.6
2018-Feb-21 08:36 291 2 gusting 5 10.0
2018-Feb-21 08:21 278 4 gusting 8 10.6
2018-Feb-21 08:06 291 5 gusting 7 10.6
2018-Feb-21 07:51 290 4 gusting 8 10.6
2018-Feb-21 07:36 281 6 gusting 9 10.0
2018-Feb-21 07:21 302 6 gusting 12 10.0
2018-Feb-21 07:06 295 6 gusting 10 10.0
2018-Feb-21 06:51 290 6 gusting 13 10.0
2018-Feb-21 06:36 283 6 gusting 11 10.0
2018-Feb-21 06:21 288 5 gusting 9 10.0
2018-Feb-21 06:06 291 5 gusting 10 10.0
2018-Feb-21 05:51 285 6 gusting 10 10.0
2018-Feb-21 05:36 290 6 gusting 12 10.0
2018-Feb-21 05:21 291 6 gusting 10 10.6
2018-Feb-21 05:06 269 4 gusting 10 10.0
2018-Feb-21 04:51 283 3 gusting 8 10.6
2018-Feb-21 04:35 281 6 gusting 10 10.6
2018-Feb-21 04:20 288 6 gusting 12 10.6
2018-Feb-21 04:05 285 5 gusting 8 10.6
2018-Feb-21 03:50 279 3 gusting 6 10.6
2018-Feb-21 03:35 283 4 gusting 8 11.1
2018-Feb-21 03:20 281 6 gusting 7 10.6
2018-Feb-21 03:05 270 4 gusting 6 10.6
2018-Feb-21 02:50 250 3 gusting 6 11.1
2018-Feb-21 02:35 276 5 gusting 6 11.1
2018-Feb-21 02:20 274 3 gusting 5 11.1
2018-Feb-21 02:05 281 3 gusting 6 11.1
2018-Feb-21 01:50 284 4 gusting 6 11.7
2018-Feb-21 01:35 286 5 gusting 7 11.7
2018-Feb-21 01:20 290 4 gusting 6 11.7
2018-Feb-21 01:05 284 4 gusting 8 11.7
2018-Feb-21 00:50 291 3 gusting 7 12.2
2018-Feb-21 00:35 291 4 gusting 6 12.2
2018-Feb-21 00:20 295 3 gusting 7 12.2
2018-Feb-21 00:05 285 4 gusting 7 12.2
2018-Feb-20 23:50 295 4 gusting 7 12.8
2018-Feb-20 23:35 288 4 gusting 7 12.8
2018-Feb-20 23:20 284 3 gusting 5 13.3
2018-Feb-20 23:04 282 2 gusting 6 13.9
2018-Feb-20 22:50 281 2 gusting 4 13.9
2018-Feb-20 22:34 342 3 gusting 6 15.0
2018-Feb-20 22:19 014 4 gusting 6 15.0
2018-Feb-20 22:04 027 3 gusting 5 14.4
2018-Feb-20 21:49 017 1 gusting 4 13.9
2018-Feb-20 21:34 008 2 gusting 4 13.9
2018-Feb-20 21:19 026 2 gusting 4 13.9
2018-Feb-20 21:04 053 3 gusting 6 13.9
2018-Feb-20 20:49 013 2 gusting 6 13.9
2018-Feb-20 20:34 058 3 gusting 5 13.9
2018-Feb-20 20:19 060 3 gusting 6 13.9
2018-Feb-20 20:04 047 5 gusting 7 14.4
2018-Feb-20 19:49 034 3 gusting 6 14.4
2018-Feb-20 19:34 026 3 gusting 6 14.4
2018-Feb-20 19:19 034 3 gusting 5 15.0
2018-Feb-20 19:04 276 0 gusting 2 15.0
2018-Feb-20 18:49 277 0 gusting 3 15.0
2018-Feb-20 18:34 231 5 gusting 10 15.0
2018-Feb-20 18:19 224 6 gusting 11 15.6
2018-Feb-20 18:04 233 8 gusting 14 15.6
2018-Feb-20 17:49 206 9 gusting 13 15.6
2018-Feb-20 17:34 224 9 gusting 14 15.6
2018-Feb-20 17:19 221 10 gusting 17 15.6
2018-Feb-20 17:04 210 12 gusting 16 15.6
2018-Feb-20 16:49 221 10 gusting 15 15.6
2018-Feb-20 16:34 229 11 gusting 17 16.7
2018-Feb-20 16:19 221 9 gusting 15 17.2
2018-Feb-20 16:04 226 8 gusting 13 17.8
2018-Feb-20 15:49 184 5 gusting 10 17.8
2018-Feb-20 15:34 212 6 gusting 11 17.8
2018-Feb-20 15:19 205 6 gusting 12 18.9
2018-Feb-20 15:04 217 6 gusting 10 18.9
2018-Feb-20 14:49 215 6 gusting 11 18.9
2018-Feb-20 14:34 203 7 gusting 12 18.9
2018-Feb-20 14:19 170 6 gusting 12 18.9
2018-Feb-20 14:04 198 2 gusting 6 19.4
2018-Feb-20 13:49 225 4 gusting 8 18.9
2018-Feb-20 13:34 188 4 gusting 8 18.9
2018-Feb-20 13:19 167 6 gusting 12 18.9
2018-Feb-20 13:04 169 3 gusting 8 18.9
2018-Feb-20 12:49 173 3 gusting 6 18.3
2018-Feb-20 12:34 143 18.3
2018-Feb-20 12:19 134 18.3
2018-Feb-20 12:04 289 18.3
2018-Feb-20 11:49 319 17.8
2018-Feb-20 11:33 282 17.2
2018-Feb-20 11:18 306 17.2
2018-Feb-20 11:03 311 16.7
2018-Feb-20 10:48 293 16.7
2018-Feb-20 10:33 283 16.7
2018-Feb-20 10:18 295 15.6
2018-Feb-20 10:03 290 15.6
2018-Feb-20 09:48 273 15.0
2018-Feb-20 09:33 288 14.4
2018-Feb-20 09:18 280 14.4
2018-Feb-20 09:03 267 13.3
2018-Feb-20 08:48 304 12.8
2018-Feb-20 08:33 281 12.2
2018-Feb-20 08:18 287 11.7
2018-Feb-20 08:03 277 11.1
2018-Feb-20 07:48 263 10.0
2018-Feb-20 07:33 283 9.4
2018-Feb-20 07:18 252 9.4
2018-Feb-20 07:03 252 9.4
2018-Feb-20 06:48 249 9.4
2018-Feb-20 06:33 260 9.4
2018-Feb-20 06:18 257 9.4
2018-Feb-20 06:03 262 8.9
2018-Feb-20 05:48 257 8.9
2018-Feb-20 05:33 261 8.9
2018-Feb-20 05:18 255 8.9
2018-Feb-20 05:02 248 8.9
2018-Feb-20 04:47 243 8.9
2018-Feb-20 04:32 243 8.9
2018-Feb-20 04:17 259 8.9
2018-Feb-20 04:02 239 8.9
2018-Feb-20 03:47 242 8.9
2018-Feb-20 03:32 246 8.9
2018-Feb-20 03:17 260 8.9
2018-Feb-20 03:02 250 9.4
2018-Feb-20 02:47 240 9.4
2018-Feb-20 02:32 266 9.4
2018-Feb-20 02:17 249 9.4
2018-Feb-20 02:02 269 9.4
2018-Feb-20 01:47 275 9.4
2018-Feb-20 01:32 281 10.0
2018-Feb-20 01:17 268 10.0
2018-Feb-20 01:02 266 10.6
2018-Feb-20 00:47 261 10.6
2018-Feb-20 00:32 255 1 gusting 3 10.6
2018-Feb-20 00:17 255 1 gusting 3 11.1
2018-Feb-20 00:02 254 0 gusting 3 11.1
2018-Feb-19 23:47 257 2 gusting 4 11.1
2018-Feb-19 23:32 246 1 gusting 3 11.1
2018-Feb-19 23:17 243 1 gusting 2 11.1
2018-Feb-19 23:02 241 1 gusting 2 11.7
2018-Feb-19 22:47 242 2 gusting 3 11.7
2018-Feb-19 22:32 242 1 gusting 3 11.7
2018-Feb-19 22:17 241 2 gusting 4 11.7
2018-Feb-19 22:02 262 1 gusting 4 12.2
2018-Feb-19 21:47 254 2 gusting 3 12.2
2018-Feb-19 21:32 246 1 gusting 3 11.7
2018-Feb-19 21:17 239 3 gusting 6 12.2
2018-Feb-19 21:02 246 3 gusting 5 12.2
2018-Feb-19 20:47 242 2 gusting 5 12.2
2018-Feb-19 20:31 233 2 gusting 4 12.2
2018-Feb-19 20:17 242 2 gusting 4 12.2
2018-Feb-19 20:01 226 3 gusting 5 12.2
2018-Feb-19 19:46 221 2 gusting 4 12.2
2018-Feb-19 19:31 219 3 gusting 4 12.2
2018-Feb-19 19:16 219 3 gusting 4 12.2
2018-Feb-19 19:01 215 2 gusting 4 12.2
2018-Feb-19 18:46 212 0 gusting 2 12.2
2018-Feb-19 18:31 211 0 gusting 3 12.8
2018-Feb-19 18:16 203 0 gusting 3 12.8
2018-Feb-19 18:01 201 1 gusting 3 12.8
2018-Feb-19 17:46 149 1 gusting 4 12.8
2018-Feb-19 17:31 190 2 gusting 5 13.3
2018-Feb-19 17:16 134 2 gusting 6 13.9
2018-Feb-19 17:01 103 2 gusting 6 13.9